sensor_id;sensor_type;location;lat;lon;timestamp;P1;durP1;ratioP1;P2;durP2;ratioP2
31978;SDS011;18502;43.574;1.276;2022-11-23T07:18:49;26.45;;;15.57;;
31978;SDS011;18502;43.574;1.276;2022-11-23T07:21:15;11.65;;;6.28;;
31978;SDS011;18502;43.574;1.276;2022-11-23T07:23:40;23.48;;;14.07;;
31978;SDS011;18502;43.574;1.276;2022-11-23T07:26:07;15.57;;;9.23;;
31978;SDS011;18502;43.574;1.276;2022-11-23T07:28:33;15.30;;;9.57;;
31978;SDS011;18502;43.574;1.276;2022-11-23T07:30:58;13.48;;;7.40;;
31978;SDS011;18502;43.574;1.276;2022-11-23T07:33:24;14.68;;;9.73;;
31978;SDS011;18502;43.574;1.276;2022-11-23T07:35:50;14.55;;;8.38;;
31978;SDS011;18502;43.574;1.276;2022-11-23T07:38:15;15.25;;;9.48;;
31978;SDS011;18502;43.574;1.276;2022-11-23T07:40:41;15.60;;;8.85;;
31978;SDS011;18502;43.574;1.276;2022-11-23T07:43:07;11.32;;;7.07;;
31978;SDS011;18502;43.574;1.276;2022-11-23T07:45:34;8.88;;;4.80;;
31978;SDS011;18502;43.574;1.276;2022-11-23T07:48:01;7.75;;;4.57;;
31978;SDS011;18502;43.574;1.276;2022-11-23T07:50:29;6.90;;;3.33;;
31978;SDS011;18502;43.574;1.276;2022-11-23T07:52:56;10.40;;;4.78;;
31978;SDS011;18502;43.574;1.276;2022-11-23T07:55:22;9.63;;;5.63;;
31978;SDS011;18502;43.574;1.276;2022-11-23T07:57:51;8.93;;;4.60;;
31978;SDS011;18502;43.574;1.276;2022-11-23T08:00:18;10.93;;;5.38;;
31978;SDS011;18502;43.574;1.276;2022-11-23T08:02:47;11.43;;;6.60;;
31978;SDS011;18502;43.574;1.276;2022-11-23T08:05:13;10.82;;;5.75;;
31978;SDS011;18502;43.574;1.276;2022-11-23T08:07:40;11.80;;;6.60;;
31978;SDS011;18502;43.574;1.276;2022-11-23T08:10:06;12.82;;;5.90;;
31978;SDS011;18502;43.574;1.276;2022-11-23T08:12:32;11.25;;;6.30;;
31978;SDS011;18502;43.574;1.276;2022-11-23T08:14:57;10.98;;;5.95;;
31978;SDS011;18502;43.574;1.276;2022-11-23T08:17:23;9.77;;;5.82;;
31978;SDS011;18502;43.574;1.276;2022-11-23T08:19:48;6.60;;;3.78;;
31978;SDS011;18502;43.574;1.276;2022-11-23T08:22:14;6.30;;;3.45;;
31978;SDS011;18502;43.574;1.276;2022-11-23T08:24:40;4.90;;;3.20;;
31978;SDS011;18502;43.574;1.276;2022-11-23T08:27:06;5.13;;;1.98;;
31978;SDS011;18502;43.574;1.276;2022-11-23T08:29:32;3.67;;;1.33;;
31978;SDS011;18502;43.574;1.276;2022-11-23T08:31:57;2.17;;;1.02;;
31978;SDS011;18502;43.574;1.276;2022-11-23T08:34:23;2.67;;;1.13;;
31978;SDS011;18502;43.574;1.276;2022-11-23T08:36:49;2.00;;;1.30;;
31978;SDS011;18502;43.574;1.276;2022-11-23T08:39:14;1.60;;;1.13;;
31978;SDS011;18502;43.574;1.276;2022-11-23T08:41:42;1.30;;;0.98;;
31978;SDS011;18502;43.574;1.276;2022-11-23T08:44:07;1.73;;;1.30;;
31978;SDS011;18502;43.574;1.276;2022-11-23T08:46:35;1.92;;;1.10;;
31978;SDS011;18502;43.574;1.276;2022-11-23T08:49:01;2.38;;;1.65;;
31978;SDS011;18502;43.574;1.276;2022-11-23T08:51:27;3.60;;;1.40;;
31978;SDS011;18502;43.574;1.276;2022-11-23T08:53:54;2.08;;;1.27;;
31978;SDS011;18502;43.574;1.276;2022-11-23T08:56:19;3.38;;;1.20;;
31978;SDS011;18502;43.574;1.276;2022-11-23T08:58:45;3.05;;;1.23;;
31978;SDS011;18502;43.574;1.276;2022-11-23T09:01:12;1.15;;;0.70;;
31978;SDS011;18502;43.574;1.276;2022-11-23T09:03:38;2.13;;;0.82;;
31978;SDS011;18502;43.574;1.276;2022-11-23T09:06:05;6.13;;;1.23;;
31978;SDS011;18502;43.574;1.276;2022-11-23T09:08:31;2.80;;;1.30;;
31978;SDS011;18502;43.574;1.276;2022-11-23T09:11:03;2.90;;;1.27;;
31978;SDS011;18502;43.574;1.276;2022-11-23T09:13:31;1.13;;;1.05;;
31978;SDS011;18502;43.574;1.276;2022-11-23T09:15:59;3.13;;;1.30;;
31978;SDS011;18502;43.574;1.276;2022-11-23T09:18:26;2.35;;;1.50;;
31978;SDS011;18502;43.574;1.276;2022-11-23T09:20:54;2.65;;;2.22;;
31978;SDS011;18502;43.574;1.276;2022-11-23T09:23:20;5.53;;;3.22;;
31978;SDS011;18502;43.574;1.276;2022-11-23T09:25:46;5.38;;;3.38;;
31978;SDS011;18502;43.574;1.276;2022-11-23T09:28:14;2.78;;;0.80;;
31978;SDS011;18502;43.574;1.276;2022-11-23T09:30:40;1.48;;;1.38;;
31978;SDS011;18502;43.574;1.276;2022-11-23T09:33:06;2.65;;;1.05;;
31978;SDS011;18502;43.574;1.276;2022-11-23T09:35:33;2.28;;;2.08;;
31978;SDS011;18502;43.574;1.276;2022-11-23T09:37:59;1.52;;;0.75;;
31978;SDS011;18502;43.574;1.276;2022-11-23T09:40:32;2.15;;;1.05;;
31978;SDS011;18502;43.574;1.276;2022-11-23T09:45:46;1.25;;;0.65;;
31978;SDS011;18502;43.574;1.276;2022-11-23T09:54:02;1.42;;;0.60;;
31978;SDS011;18502;43.574;1.276;2022-11-23T09:56:34;1.38;;;0.98;;
31978;SDS011;18502;43.574;1.276;2022-11-23T09:59:10;2.20;;;0.50;;
31978;SDS011;18502;43.574;1.276;2022-11-23T10:01:50;2.72;;;0.70;;
31978;SDS011;18502;43.574;1.276;2022-11-23T10:04:17;1.38;;;0.60;;
31978;SDS011;18502;43.574;1.276;2022-11-23T10:06:44;1.65;;;0.30;;
31978;SDS011;18502;43.574;1.276;2022-11-23T10:20:06;2.10;;;1.08;;
31978;SDS011;18502;43.574;1.276;2022-11-23T10:22:57;2.05;;;0.50;;
31978;SDS011;18502;43.574;1.276;2022-11-23T10:25:36;3.58;;;0.77;;
31978;SDS011;18502;43.574;1.276;2022-11-23T10:28:12;5.40;;;0.80;;
31978;SDS011;18502;43.574;1.276;2022-11-23T10:30:38;4.28;;;0.45;;
31978;SDS011;18502;43.574;1.276;2022-11-23T10:33:10;7.78;;;1.23;;
31978;SDS011;18502;43.574;1.276;2022-11-23T10:35:55;5.53;;;0.95;;
31978;SDS011;18502;43.574;1.276;2022-11-23T10:38:24;4.45;;;1.10;;
31978;SDS011;18502;43.574;1.276;2022-11-23T10:43:37;6.63;;;0.90;;
31978;SDS011;18502;43.574;1.276;2022-11-23T10:48:48;7.38;;;1.40;;
31978;SDS011;18502;43.574;1.276;2022-11-23T10:51:18;7.50;;;2.00;;
31978;SDS011;18502;43.574;1.276;2022-11-23T10:53:58;15.77;;;3.53;;
31978;SDS011;18502;43.574;1.276;2022-11-23T10:56:29;8.23;;;2.00;;
31978;SDS011;18502;43.574;1.276;2022-11-23T10:58:55;10.18;;;2.05;;
31978;SDS011;18502;43.574;1.276;2022-11-23T11:01:23;16.52;;;3.05;;
31978;SDS011;18502;43.574;1.276;2022-11-23T11:03:50;11.73;;;2.20;;
31978;SDS011;18502;43.574;1.276;2022-11-23T11:06:24;10.30;;;2.35;;
31978;SDS011;18502;43.574;1.276;2022-11-23T11:08:53;11.27;;;3.15;;
31978;SDS011;18502;43.574;1.276;2022-11-23T11:11:24;13.53;;;2.60;;
31978;SDS011;18502;43.574;1.276;2022-11-23T11:16:32;11.90;;;2.60;;
31978;SDS011;18502;43.574;1.276;2022-11-23T11:19:19;11.18;;;2.47;;
31978;SDS011;18502;43.574;1.276;2022-11-23T11:21:45;8.63;;;2.13;;
31978;SDS011;18502;43.574;1.276;2022-11-23T11:24:15;11.70;;;2.75;;
31978;SDS011;18502;43.574;1.276;2022-11-23T11:26:51;11.65;;;2.05;;
31978;SDS011;18502;43.574;1.276;2022-11-23T11:34:31;9.70;;;2.25;;
31978;SDS011;18502;43.574;1.276;2022-11-23T11:37:18;8.80;;;2.08;;
31978;SDS011;18502;43.574;1.276;2022-11-23T11:39:59;11.05;;;2.08;;
31978;SDS011;18502;43.574;1.276;2022-11-23T11:43:24;6.75;;;2.03;;
31978;SDS011;18502;43.574;1.276;2022-11-23T11:45:42;8.40;;;1.98;;
31978;SDS011;18502;43.574;1.276;2022-11-23T11:50:58;13.73;;;2.70;;
31978;SDS011;18502;43.574;1.276;2022-11-23T11:53:35;17.23;;;2.45;;
31978;SDS011;18502;43.574;1.276;2022-11-23T11:58:42;10.27;;;2.42;;
31978;SDS011;18502;43.574;1.276;2022-11-23T12:09:33;9.50;;;3.40;;
31978;SDS011;18502;43.574;1.276;2022-11-23T12:12:02;16.10;;;3.45;;
31978;SDS011;18502;43.574;1.276;2022-11-23T12:14:36;16.80;;;3.72;;
31978;SDS011;18502;43.574;1.276;2022-11-23T12:20:25;11.27;;;3.03;;
31978;SDS011;18502;43.574;1.276;2022-11-23T12:28:04;13.20;;;2.67;;
31978;SDS011;18502;43.574;1.276;2022-11-23T12:36:26;13.35;;;3.83;;
31978;SDS011;18502;43.574;1.276;2022-11-23T12:41:55;13.80;;;4.00;;
31978;SDS011;18502;43.574;1.276;2022-11-23T12:44:41;17.80;;;3.88;;
31978;SDS011;18502;43.574;1.276;2022-11-23T12:49:57;18.70;;;4.53;;
31978;SDS011;18502;43.574;1.276;2022-11-23T12:57:37;15.40;;;3.70;;
31978;SDS011;18502;43.574;1.276;2022-11-23T13:16:49;14.52;;;4.03;;
31978;SDS011;18502;43.574;1.276;2022-11-23T13:22:10;21.48;;;4.28;;
31978;SDS011;18502;43.574;1.276;2022-11-23T13:24:56;13.15;;;3.42;;
31978;SDS011;18502;43.574;1.276;2022-11-23T13:33:02;15.13;;;3.40;;
31978;SDS011;18502;43.574;1.276;2022-11-23T13:40:38;20.85;;;4.13;;
31978;SDS011;18502;43.574;1.276;2022-11-23T13:43:24;16.60;;;3.58;;
31978;SDS011;18502;43.574;1.276;2022-11-23T13:46:26;13.07;;;3.47;;
31978;SDS011;18502;43.574;1.276;2022-11-23T13:48:47;16.25;;;3.92;;
31978;SDS011;18502;43.574;1.276;2022-11-23T13:51:22;17.05;;;4.30;;
31978;SDS011;18502;43.574;1.276;2022-11-23T13:56:43;15.15;;;3.75;;
31978;SDS011;18502;43.574;1.276;2022-11-23T14:09:51;14.38;;;4.28;;
31978;SDS011;18502;43.574;1.276;2022-11-23T14:12:43;16.33;;;2.88;;
31978;SDS011;18502;43.574;1.276;2022-11-23T14:15:19;16.27;;;4.35;;
31978;SDS011;18502;43.574;1.276;2022-11-23T14:23:10;20.75;;;4.20;;
31978;SDS011;18502;43.574;1.276;2022-11-23T14:33:53;14.68;;;3.63;;
31978;SDS011;18502;43.574;1.276;2022-11-23T14:42:02;15.68;;;2.92;;
31978;SDS011;18502;43.574;1.276;2022-11-23T14:44:35;12.25;;;2.25;;
31978;SDS011;18502;43.574;1.276;2022-11-23T14:47:04;11.68;;;2.78;;
31978;SDS011;18502;43.574;1.276;2022-11-23T14:49:31;12.65;;;2.72;;
31978;SDS011;18502;43.574;1.276;2022-11-23T14:51:57;11.75;;;2.60;;
31978;SDS011;18502;43.574;1.276;2022-11-23T14:54:25;13.07;;;3.22;;
31978;SDS011;18502;43.574;1.276;2022-11-23T14:56:53;16.95;;;3.50;;
31978;SDS011;18502;43.574;1.276;2022-11-23T14:59:28;11.88;;;3.13;;
31978;SDS011;18502;43.574;1.276;2022-11-23T15:02:02;13.48;;;4.70;;
31978;SDS011;18502;43.574;1.276;2022-11-23T15:04:31;14.93;;;3.72;;
31978;SDS011;18502;43.574;1.276;2022-11-23T15:15:15;16.85;;;2.97;;
31978;SDS011;18502;43.574;1.276;2022-11-23T15:17:53;12.95;;;2.97;;
31978;SDS011;18502;43.574;1.276;2022-11-23T15:20:20;14.38;;;2.85;;
31978;SDS011;18502;43.574;1.276;2022-11-23T15:22:49;16.15;;;3.00;;
31978;SDS011;18502;43.574;1.276;2022-11-23T15:25:15;20.20;;;2.78;;
31978;SDS011;18502;43.574;1.276;2022-11-23T15:27:43;12.80;;;2.47;;
31978;SDS011;18502;43.574;1.276;2022-11-23T15:30:14;12.98;;;3.05;;
31978;SDS011;18502;43.574;1.276;2022-11-23T15:33:00;13.18;;;3.17;;
31978;SDS011;18502;43.574;1.276;2022-11-23T15:35:33;13.05;;;2.63;;
31978;SDS011;18502;43.574;1.276;2022-11-23T15:38:00;9.73;;;2.30;;
31978;SDS011;18502;43.574;1.276;2022-11-23T15:40:29;16.50;;;3.80;;
31978;SDS011;18502;43.574;1.276;2022-11-23T15:42:57;23.67;;;4.75;;
31978;SDS011;18502;43.574;1.276;2022-11-23T15:48:03;15.57;;;4.00;;
31978;SDS011;18502;43.574;1.276;2022-11-23T15:50:33;17.33;;;2.80;;
31978;SDS011;18502;43.574;1.276;2022-11-23T15:53:08;14.90;;;3.75;;
31978;SDS011;18502;43.574;1.276;2022-11-23T15:55:34;18.95;;;3.22;;
31978;SDS011;18502;43.574;1.276;2022-11-23T15:58:00;21.63;;;4.38;;
31978;SDS011;18502;43.574;1.276;2022-11-23T16:00:31;17.45;;;4.45;;
31978;SDS011;18502;43.574;1.276;2022-11-23T16:08:35;22.98;;;4.82;;
31978;SDS011;18502;43.574;1.276;2022-11-23T16:11:01;28.90;;;5.20;;
31978;SDS011;18502;43.574;1.276;2022-11-23T16:13:35;19.40;;;3.35;;
31978;SDS011;18502;43.574;1.276;2022-11-23T16:16:07;19.92;;;5.22;;
31978;SDS011;18502;43.574;1.276;2022-11-23T16:18:42;18.08;;;4.03;;
31978;SDS011;18502;43.574;1.276;2022-11-23T16:21:12;26.05;;;5.32;;
31978;SDS011;18502;43.574;1.276;2022-11-23T16:23:56;22.48;;;4.57;;
31978;SDS011;18502;43.574;1.276;2022-11-23T16:26:28;21.30;;;4.95;;
31978;SDS011;18502;43.574;1.276;2022-11-23T16:28:56;18.35;;;3.85;;
31978;SDS011;18502;43.574;1.276;2022-11-23T16:31:26;21.50;;;3.90;;
31978;SDS011;18502;43.574;1.276;2022-11-23T16:36:40;23.08;;;4.35;;
31978;SDS011;18502;43.574;1.276;2022-11-23T16:39:05;22.00;;;5.38;;
31978;SDS011;18502;43.574;1.276;2022-11-23T16:41:31;18.75;;;3.20;;
31978;SDS011;18502;43.574;1.276;2022-11-23T16:43:57;21.00;;;3.65;;
31978;SDS011;18502;43.574;1.276;2022-11-23T16:46:22;22.67;;;4.47;;
31978;SDS011;18502;43.574;1.276;2022-11-23T16:48:48;21.83;;;3.65;;
31978;SDS011;18502;43.574;1.276;2022-11-23T16:51:16;24.40;;;5.18;;
31978;SDS011;18502;43.574;1.276;2022-11-23T16:53:43;18.08;;;3.75;;
31978;SDS011;18502;43.574;1.276;2022-11-23T16:56:13;21.77;;;4.90;;
31978;SDS011;18502;43.574;1.276;2022-11-23T16:58:43;18.25;;;3.65;;
31978;SDS011;18502;43.574;1.276;2022-11-23T17:01:42;21.77;;;4.05;;
31978;SDS011;18502;43.574;1.276;2022-11-23T17:04:02;24.60;;;4.47;;
31978;SDS011;18502;43.574;1.276;2022-11-23T17:06:27;24.85;;;5.40;;
31978;SDS011;18502;43.574;1.276;2022-11-23T17:08:53;21.05;;;5.18;;
31978;SDS011;18502;43.574;1.276;2022-11-23T17:11:20;35.78;;;6.47;;
31978;SDS011;18502;43.574;1.276;2022-11-23T17:13:48;20.48;;;5.80;;
31978;SDS011;18502;43.574;1.276;2022-11-23T17:16:18;26.65;;;6.03;;
31978;SDS011;18502;43.574;1.276;2022-11-23T17:18:45;29.03;;;6.77;;
31978;SDS011;18502;43.574;1.276;2022-11-23T17:21:11;22.85;;;6.07;;
31978;SDS011;18502;43.574;1.276;2022-11-23T17:23:37;26.60;;;6.40;;
31978;SDS011;18502;43.574;1.276;2022-11-23T17:26:05;24.70;;;7.30;;
31978;SDS011;18502;43.574;1.276;2022-11-23T17:28:31;24.00;;;6.13;;
31978;SDS011;18502;43.574;1.276;2022-11-23T17:30:59;19.77;;;5.38;;
31978;SDS011;18502;43.574;1.276;2022-11-23T17:33:25;27.13;;;5.82;;
31978;SDS011;18502;43.574;1.276;2022-11-23T17:35:52;19.45;;;4.85;;
31978;SDS011;18502;43.574;1.276;2022-11-23T17:38:22;24.40;;;5.82;;
31978;SDS011;18502;43.574;1.276;2022-11-23T17:40:50;30.48;;;5.72;;
31978;SDS011;18502;43.574;1.276;2022-11-23T17:43:18;24.20;;;5.05;;
31978;SDS011;18502;43.574;1.276;2022-11-23T17:45:44;18.80;;;3.47;;
31978;SDS011;18502;43.574;1.276;2022-11-23T17:48:11;17.15;;;4.03;;
31978;SDS011;18502;43.574;1.276;2022-11-23T17:50:37;17.45;;;3.65;;
31978;SDS011;18502;43.574;1.276;2022-11-23T17:53:03;26.60;;;6.70;;
31978;SDS011;18502;43.574;1.276;2022-11-23T17:55:29;20.85;;;7.00;;
31978;SDS011;18502;43.574;1.276;2022-11-23T17:57:54;20.58;;;7.05;;
31978;SDS011;18502;43.574;1.276;2022-11-23T18:00:21;14.05;;;3.88;;
31978;SDS011;18502;43.574;1.276;2022-11-23T18:02:47;12.77;;;3.15;;
31978;SDS011;18502;43.574;1.276;2022-11-23T18:05:13;17.45;;;5.55;;
31978;SDS011;18502;43.574;1.276;2022-11-23T18:07:40;25.13;;;5.25;;
31978;SDS011;18502;43.574;1.276;2022-11-23T18:10:06;18.48;;;4.03;;
31978;SDS011;18502;43.574;1.276;2022-11-23T18:12:34;16.55;;;5.22;;
31978;SDS011;18502;43.574;1.276;2022-11-23T18:14:59;23.70;;;7.28;;
31978;SDS011;18502;43.574;1.276;2022-11-23T18:17:25;14.80;;;6.18;;
31978;SDS011;18502;43.574;1.276;2022-11-23T18:19:51;20.92;;;6.25;;
31978;SDS011;18502;43.574;1.276;2022-11-23T18:22:17;19.10;;;5.80;;
31978;SDS011;18502;43.574;1.276;2022-11-23T18:24:42;21.83;;;6.40;;
31978;SDS011;18502;43.574;1.276;2022-11-23T18:27:08;18.15;;;5.40;;
31978;SDS011;18502;43.574;1.276;2022-11-23T18:29:34;15.60;;;4.15;;
31978;SDS011;18502;43.574;1.276;2022-11-23T18:32:00;16.10;;;4.85;;
31978;SDS011;18502;43.574;1.276;2022-11-23T18:34:27;19.52;;;5.32;;
31978;SDS011;18502;43.574;1.276;2022-11-23T18:36:52;20.55;;;5.63;;
31978;SDS011;18502;43.574;1.276;2022-11-23T18:39:18;55.58;;;20.40;;
31978;SDS011;18502;43.574;1.276;2022-11-23T18:41:44;26.30;;;9.43;;
31978;SDS011;18502;43.574;1.276;2022-11-23T18:44:10;33.55;;;12.65;;
31978;SDS011;18502;43.574;1.276;2022-11-23T18:46:36;28.67;;;15.35;;
31978;SDS011;18502;43.574;1.276;2022-11-23T18:49:01;25.80;;;7.80;;
31978;SDS011;18502;43.574;1.276;2022-11-23T18:51:27;22.33;;;6.82;;
31978;SDS011;18502;43.574;1.276;2022-11-23T18:53:53;29.90;;;8.55;;
31978;SDS011;18502;43.574;1.276;2022-11-23T18:56:19;25.75;;;11.82;;
31978;SDS011;18502;43.574;1.276;2022-11-23T18:58:45;18.92;;;6.97;;
31978;SDS011;18502;43.574;1.276;2022-11-23T19:01:15;21.70;;;6.47;;
31978;SDS011;18502;43.574;1.276;2022-11-23T19:03:43;25.23;;;8.57;;
31978;SDS011;18502;43.574;1.276;2022-11-23T19:06:10;40.20;;;10.70;;
31978;SDS011;18502;43.574;1.276;2022-11-23T19:08:41;26.50;;;8.73;;
31978;SDS011;18502;43.574;1.276;2022-11-23T19:11:13;24.65;;;10.30;;
31978;SDS011;18502;43.574;1.276;2022-11-23T19:13:46;35.03;;;11.65;;
31978;SDS011;18502;43.574;1.276;2022-11-23T19:16:13;27.10;;;11.57;;
31978;SDS011;18502;43.574;1.276;2022-11-23T19:18:45;38.33;;;15.02;;
31978;SDS011;18502;43.574;1.276;2022-11-23T19:21:12;39.08;;;15.18;;
31978;SDS011;18502;43.574;1.276;2022-11-23T19:23:39;224.40;;;80.15;;
31978;SDS011;18502;43.574;1.276;2022-11-23T19:26:05;415.52;;;120.72;;
31978;SDS011;18502;43.574;1.276;2022-11-23T19:28:31;379.10;;;99.22;;
31978;SDS011;18502;43.574;1.276;2022-11-23T19:30:57;235.27;;;63.05;;
31978;SDS011;18502;43.574;1.276;2022-11-23T19:33:22;393.35;;;126.82;;
31978;SDS011;18502;43.574;1.276;2022-11-23T19:35:48;424.58;;;136.38;;
31978;SDS011;18502;43.574;1.276;2022-11-23T19:38:14;138.48;;;49.55;;
31978;SDS011;18502;43.574;1.276;2022-11-23T19:40:41;63.60;;;25.17;;
31978;SDS011;18502;43.574;1.276;2022-11-23T19:43:07;41.58;;;12.65;;
31978;SDS011;18502;43.574;1.276;2022-11-23T19:45:33;40.35;;;14.02;;
31978;SDS011;18502;43.574;1.276;2022-11-23T19:47:58;43.08;;;14.63;;
31978;SDS011;18502;43.574;1.276;2022-11-23T19:50:24;33.00;;;9.27;;
31978;SDS011;18502;43.574;1.276;2022-11-23T19:52:50;29.42;;;7.82;;
31978;SDS011;18502;43.574;1.276;2022-11-23T19:55:15;33.33;;;7.20;;
31978;SDS011;18502;43.574;1.276;2022-11-23T19:57:41;25.52;;;7.80;;
31978;SDS011;18502;43.574;1.276;2022-11-23T20:00:07;30.27;;;8.45;;
31978;SDS011;18502;43.574;1.276;2022-11-23T20:02:33;24.95;;;6.82;;
31978;SDS011;18502;43.574;1.276;2022-11-23T20:04:59;39.13;;;7.65;;
31978;SDS011;18502;43.574;1.276;2022-11-23T20:07:25;30.85;;;6.82;;
31978;SDS011;18502;43.574;1.276;2022-11-23T20:09:51;34.63;;;7.20;;
31978;SDS011;18502;43.574;1.276;2022-11-23T20:12:17;25.27;;;7.00;;
31978;SDS011;18502;43.574;1.276;2022-11-23T20:14:43;30.48;;;6.28;;
31978;SDS011;18502;43.574;1.276;2022-11-23T20:17:08;31.52;;;8.90;;
31978;SDS011;18502;43.574;1.276;2022-11-23T20:19:34;36.70;;;9.88;;
31978;SDS011;18502;43.574;1.276;2022-11-23T20:21:59;36.20;;;10.80;;
31978;SDS011;18502;43.574;1.276;2022-11-23T20:24:25;32.85;;;10.13;;
31978;SDS011;18502;43.574;1.276;2022-11-23T20:26:51;36.67;;;9.93;;
31978;SDS011;18502;43.574;1.276;2022-11-23T20:29:16;40.72;;;9.77;;
31978;SDS011;18502;43.574;1.276;2022-11-23T20:31:42;32.20;;;8.00;;
31978;SDS011;18502;43.574;1.276;2022-11-23T20:34:08;31.35;;;6.60;;
31978;SDS011;18502;43.574;1.276;2022-11-23T20:36:35;26.08;;;6.00;;
31978;SDS011;18502;43.574;1.276;2022-11-23T20:39:02;31.02;;;6.40;;
31978;SDS011;18502;43.574;1.276;2022-11-23T20:41:30;40.17;;;7.88;;
31978;SDS011;18502;43.574;1.276;2022-11-23T20:43:59;38.50;;;8.65;;
31978;SDS011;18502;43.574;1.276;2022-11-23T20:46:27;39.42;;;9.65;;
31978;SDS011;18502;43.574;1.276;2022-11-23T20:48:54;33.80;;;8.10;;
31978;SDS011;18502;43.574;1.276;2022-11-23T20:51:22;33.00;;;7.78;;
31978;SDS011;18502;43.574;1.276;2022-11-23T20:53:51;32.67;;;8.38;;
31978;SDS011;18502;43.574;1.276;2022-11-23T20:56:17;42.53;;;12.25;;
31978;SDS011;18502;43.574;1.276;2022-11-23T20:58:47;33.53;;;8.57;;
31978;SDS011;18502;43.574;1.276;2022-11-23T21:01:16;32.25;;;6.40;;
31978;SDS011;18502;43.574;1.276;2022-11-23T21:03:47;36.78;;;7.13;;
31978;SDS011;18502;43.574;1.276;2022-11-23T21:06:16;32.33;;;6.20;;
31978;SDS011;18502;43.574;1.276;2022-11-23T21:08:43;34.33;;;6.13;;
31978;SDS011;18502;43.574;1.276;2022-11-23T21:11:10;46.28;;;6.07;;
31978;SDS011;18502;43.574;1.276;2022-11-23T21:13:59;30.35;;;5.25;;
31978;SDS011;18502;43.574;1.276;2022-11-23T21:16:33;27.15;;;4.93;;
31978;SDS011;18502;43.574;1.276;2022-11-23T21:19:09;27.90;;;5.45;;
31978;SDS011;18502;43.574;1.276;2022-11-23T21:21:36;25.65;;;6.35;;
31978;SDS011;18502;43.574;1.276;2022-11-23T21:24:03;30.10;;;5.55;;
31978;SDS011;18502;43.574;1.276;2022-11-23T21:26:30;30.10;;;7.25;;
31978;SDS011;18502;43.574;1.276;2022-11-23T21:28:56;25.98;;;6.43;;
31978;SDS011;18502;43.574;1.276;2022-11-23T21:31:22;37.47;;;6.15;;
31978;SDS011;18502;43.574;1.276;2022-11-23T21:33:48;29.27;;;5.43;;
31978;SDS011;18502;43.574;1.276;2022-11-23T21:36:14;33.90;;;6.38;;
31978;SDS011;18502;43.574;1.276;2022-11-23T21:38:40;26.02;;;5.85;;
31978;SDS011;18502;43.574;1.276;2022-11-23T21:41:08;33.85;;;7.70;;
31978;SDS011;18502;43.574;1.276;2022-11-23T21:43:36;42.88;;;6.38;;
31978;SDS011;18502;43.574;1.276;2022-11-23T21:46:06;36.80;;;6.90;;
31978;SDS011;18502;43.574;1.276;2022-11-23T21:48:34;33.60;;;6.05;;
31978;SDS011;18502;43.574;1.276;2022-11-23T21:51:03;32.65;;;6.13;;
31978;SDS011;18502;43.574;1.276;2022-11-23T21:53:34;34.55;;;6.45;;
31978;SDS011;18502;43.574;1.276;2022-11-23T21:56:04;33.70;;;7.05;;
31978;SDS011;18502;43.574;1.276;2022-11-23T21:58:32;24.90;;;4.93;;
31978;SDS011;18502;43.574;1.276;2022-11-23T22:01:05;31.80;;;6.75;;
31978;SDS011;18502;43.574;1.276;2022-11-23T22:03:38;38.20;;;6.25;;
31978;SDS011;18502;43.574;1.276;2022-11-23T22:06:05;25.90;;;5.88;;
31978;SDS011;18502;43.574;1.276;2022-11-23T22:08:31;36.72;;;7.90;;
31978;SDS011;18502;43.574;1.276;2022-11-23T22:10:57;32.80;;;6.32;;
31978;SDS011;18502;43.574;1.276;2022-11-23T22:13:24;34.17;;;6.13;;
31978;SDS011;18502;43.574;1.276;2022-11-23T22:15:50;40.25;;;6.80;;
31978;SDS011;18502;43.574;1.276;2022-11-23T22:18:16;43.63;;;6.78;;
31978;SDS011;18502;43.574;1.276;2022-11-23T22:20:42;37.22;;;5.97;;
31978;SDS011;18502;43.574;1.276;2022-11-23T22:23:09;34.47;;;5.97;;
31978;SDS011;18502;43.574;1.276;2022-11-23T22:25:36;34.53;;;5.43;;
31978;SDS011;18502;43.574;1.276;2022-11-23T22:28:01;39.45;;;7.30;;
31978;SDS011;18502;43.574;1.276;2022-11-23T22:30:27;36.65;;;7.00;;
31978;SDS011;18502;43.574;1.276;2022-11-23T22:32:53;37.67;;;7.28;;
31978;SDS011;18502;43.574;1.276;2022-11-23T22:35:20;39.70;;;7.07;;
31978;SDS011;18502;43.574;1.276;2022-11-23T22:37:46;35.70;;;7.40;;
31978;SDS011;18502;43.574;1.276;2022-11-23T22:40:12;32.92;;;6.95;;
31978;SDS011;18502;43.574;1.276;2022-11-23T22:42:37;29.90;;;6.32;;
31978;SDS011;18502;43.574;1.276;2022-11-23T22:45:03;37.83;;;7.00;;
31978;SDS011;18502;43.574;1.276;2022-11-23T22:47:29;32.75;;;8.30;;
31978;SDS011;18502;43.574;1.276;2022-11-23T22:49:55;35.50;;;8.60;;
31978;SDS011;18502;43.574;1.276;2022-11-23T22:52:20;36.42;;;10.20;;
31978;SDS011;18502;43.574;1.276;2022-11-23T22:54:46;36.85;;;12.25;;
31978;SDS011;18502;43.574;1.276;2022-11-23T22:57:12;36.78;;;7.13;;
31978;SDS011;18502;43.574;1.276;2022-11-23T22:59:38;31.88;;;6.80;;
31978;SDS011;18502;43.574;1.276;2022-11-23T23:02:03;36.30;;;6.78;;
31978;SDS011;18502;43.574;1.276;2022-11-23T23:04:29;35.10;;;7.78;;
31978;SDS011;18502;43.574;1.276;2022-11-23T23:06:55;39.78;;;6.97;;
31978;SDS011;18502;43.574;1.276;2022-11-23T23:09:21;38.95;;;7.30;;
31978;SDS011;18502;43.574;1.276;2022-11-23T23:11:47;34.08;;;5.30;;
31978;SDS011;18502;43.574;1.276;2022-11-23T23:14:13;36.65;;;6.65;;
31978;SDS011;18502;43.574;1.276;2022-11-23T23:16:38;27.23;;;7.13;;
31978;SDS011;18502;43.574;1.276;2022-11-23T23:19:04;41.33;;;6.85;;
31978;SDS011;18502;43.574;1.276;2022-11-23T23:21:31;35.97;;;6.63;;
31978;SDS011;18502;43.574;1.276;2022-11-23T23:23:57;26.33;;;5.63;;
31978;SDS011;18502;43.574;1.276;2022-11-23T23:26:25;34.72;;;6.35;;
31978;SDS011;18502;43.574;1.276;2022-11-23T23:28:54;30.23;;;6.53;;
31978;SDS011;18502;43.574;1.276;2022-11-23T23:31:21;33.72;;;7.85;;
31978;SDS011;18502;43.574;1.276;2022-11-23T23:33:48;31.25;;;6.50;;
31978;SDS011;18502;43.574;1.276;2022-11-23T23:36:14;34.05;;;7.10;;
31978;SDS011;18502;43.574;1.276;2022-11-23T23:38:41;34.45;;;6.88;;
31978;SDS011;18502;43.574;1.276;2022-11-23T23:41:08;35.63;;;8.32;;
31978;SDS011;18502;43.574;1.276;2022-11-23T23:43:35;34.88;;;8.98;;
31978;SDS011;18502;43.574;1.276;2022-11-23T23:46:01;51.00;;;18.60;;
31978;SDS011;18502;43.574;1.276;2022-11-23T23:48:32;41.85;;;7.25;;
31978;SDS011;18502;43.574;1.276;2022-11-23T23:51:06;34.55;;;6.38;;
31978;SDS011;18502;43.574;1.276;2022-11-23T23:53:35;37.00;;;7.28;;
31978;SDS011;18502;43.574;1.276;2022-11-23T23:56:02;31.27;;;6.38;;
31978;SDS011;18502;43.574;1.276;2022-11-23T23:58:31;31.00;;;8.32;;
